createdAt,value
2022-10-09T00:01:29.686Z,101269.41
2022-10-09T00:03:58.635Z,101272.28
2022-10-09T00:06:32.862Z,101271.97
2022-10-09T00:09:04.420Z,101264.88
2022-10-09T00:11:34.013Z,101255.31
2022-10-09T00:14:06.541Z,101249.53
2022-10-09T00:16:36.176Z,101249.63
2022-10-09T00:19:05.025Z,101253.25
2022-10-09T00:21:34.457Z,101261.19
2022-10-09T00:24:04.203Z,101252.19
2022-10-09T00:26:32.316Z,101250.69
2022-10-09T00:29:00.013Z,101252.19
2022-10-09T00:31:27.808Z,101244.63
2022-10-09T00:33:55.469Z,101238.22
2022-10-09T00:36:25.420Z,101248.13
2022-10-09T00:38:54.672Z,101246.34
2022-10-09T00:41:31.480Z,101242.28
2022-10-09T00:44:01.609Z,101244.84
2022-10-09T00:46:35.180Z,101240.47
2022-10-09T00:49:18.112Z,101245.00
2022-10-09T00:51:48.677Z,101249.28
2022-10-09T00:54:22.746Z,101245.78
2022-10-09T00:56:51.121Z,101243.78
2022-10-09T00:59:19.681Z,101239.38
2022-10-09T01:01:47.915Z,101231.69
2022-10-09T01:04:15.899Z,101233.53
2022-10-09T01:06:59.831Z,101236.13
2022-10-09T01:09:41.528Z,101232.66
2022-10-09T01:12:08.980Z,101234.34
2022-10-09T01:14:44.221Z,101223.75
2022-10-09T01:17:24.813Z,101227.31
2022-10-09T01:20:25.926Z,101221.47
2022-10-09T01:23:18.592Z,101220.63
2022-10-09T01:26:11.072Z,101221.59
2022-10-09T01:28:47.485Z,101221.53
2022-10-09T01:31:17.186Z,101226.69
2022-10-09T01:33:46.672Z,101226.91
2022-10-09T01:36:16.641Z,101235.84
2022-10-09T01:38:45.670Z,101236.72
2022-10-09T01:41:13.573Z,101234.94
2022-10-09T01:43:41.688Z,101236.72
2022-10-09T01:46:29.761Z,101235.13
2022-10-09T01:49:03.459Z,101241.38
2022-10-09T01:51:40.425Z,101243.06
2022-10-09T01:54:12.041Z,101239.81
2022-10-09T01:56:40.135Z,101237.47
2022-10-09T01:59:15.822Z,101235.59
2022-10-09T02:01:46.272Z,101234.09
2022-10-09T02:04:16.884Z,101239.47
2022-10-09T02:06:47.373Z,101241.19
2022-10-09T02:09:18.219Z,101234.00
2022-10-09T02:11:51.626Z,101235.09
2022-10-09T02:14:19.993Z,101225.59
2022-10-09T02:16:54.966Z,101225.19
2022-10-09T02:19:31.677Z,101219.41
2022-10-09T02:22:13.161Z,101218.31
2022-10-09T02:24:42.449Z,101221.75
2022-10-09T02:27:12.593Z,101226.88
2022-10-09T02:29:42.931Z,101217.09
2022-10-09T02:32:11.520Z,101210.94
2022-10-09T02:34:40.672Z,101218.00
2022-10-09T02:37:08.784Z,101217.31
2022-10-09T02:39:36.458Z,101208.56
2022-10-09T02:42:04.925Z,101219.03
2022-10-09T02:44:32.699Z,101207.81
2022-10-09T02:47:00.125Z,101211.94
2022-10-09T02:49:28.049Z,101222.63
2022-10-09T02:51:55.577Z,101213.75
2022-10-09T02:54:23.010Z,101214.03
2022-10-09T02:56:50.489Z,101207.38
2022-10-09T02:59:18.197Z,101209.97
2022-10-09T03:01:46.804Z,101209.31
2022-10-09T03:04:14.470Z,101209.88
2022-10-09T03:06:42.184Z,101205.44
2022-10-09T03:09:09.757Z,101205.59
2022-10-09T03:11:37.204Z,101218.19
2022-10-09T03:14:05.588Z,101221.19
2022-10-09T03:16:33.172Z,101212.16
2022-10-09T03:19:00.769Z,101217.44
2022-10-09T03:21:28.915Z,101211.66
2022-10-09T03:23:56.557Z,101215.97
2022-10-09T03:26:27.081Z,101211.44
2022-10-09T03:28:55.772Z,101208.03
2022-10-09T03:34:14.227Z,101198.03
2022-10-09T03:36:42.411Z,101199.72
2022-10-09T03:39:10.128Z,101202.53
2022-10-09T03:41:38.015Z,101196.44
2022-10-09T03:44:05.640Z,101187.72
2022-10-09T03:46:33.289Z,101190.63
2022-10-09T03:49:00.947Z,101193.13
2022-10-09T03:51:28.982Z,101183.56
2022-10-09T03:53:56.469Z,101190.63
2022-10-09T03:56:24.295Z,101189.88
2022-10-09T03:58:51.822Z,101192.44
2022-10-09T04:01:19.451Z,101189.72
2022-10-09T04:03:47.114Z,101195.00
2022-10-09T04:06:15.096Z,101181.00
2022-10-09T04:08:43.140Z,101194.22
2022-10-09T04:11:10.649Z,101170.63
2022-10-09T04:13:38.669Z,101180.00
2022-10-09T04:16:09.475Z,101178.47
2022-10-09T04:18:36.980Z,101168.56
2022-10-09T04:21:04.466Z,101169.22
2022-10-09T04:23:32.412Z,101175.50
2022-10-09T04:26:00.400Z,101174.34
2022-10-09T04:28:29.110Z,101166.22
2022-10-09T04:30:57.821Z,101177.66
2022-10-09T04:33:26.939Z,101172.34
2022-10-09T04:35:55.815Z,101175.19
2022-10-09T04:38:24.982Z,101172.88
2022-10-09T04:41:00.487Z,101183.28
2022-10-09T04:43:28.774Z,101180.94
2022-10-09T04:45:56.671Z,101176.00
2022-10-09T04:48:24.676Z,101170.56
2022-10-09T04:50:52.171Z,101176.00
2022-10-09T04:53:19.790Z,101175.72
2022-10-09T04:55:47.353Z,101178.19
2022-10-09T04:58:15.085Z,101172.72
2022-10-09T05:00:44.812Z,101170.81
2022-10-09T05:03:13.099Z,101160.94
2022-10-09T05:05:41.809Z,101151.84
2022-10-09T05:08:09.736Z,101161.34
2022-10-09T05:10:38.235Z,101160.28
2022-10-09T05:13:05.888Z,101155.16
2022-10-09T05:15:37.673Z,101160.13
2022-10-09T05:18:05.444Z,101155.00
2022-10-09T05:20:32.994Z,101157.44
2022-10-09T05:23:00.702Z,101155.72
2022-10-09T05:25:28.232Z,101160.63
2022-10-09T05:27:56.350Z,101155.91
2022-10-09T05:30:23.932Z,101163.69
2022-10-09T05:32:52.201Z,101168.13
2022-10-09T05:35:19.788Z,101163.69
2022-10-09T05:37:47.530Z,101157.53
2022-10-09T05:40:15.128Z,101170.00
2022-10-09T05:42:42.588Z,101164.31
2022-10-09T05:45:11.471Z,101167.09
2022-10-09T05:47:39.288Z,101161.22
2022-10-09T05:50:07.333Z,101161.13
2022-10-09T05:52:35.811Z,101157.22
2022-10-09T05:55:03.830Z,101152.53
2022-10-09T05:57:31.704Z,101154.03
2022-10-09T05:59:59.184Z,101153.63
2022-10-09T06:02:28.722Z,101148.28
2022-10-09T06:04:56.286Z,101146.41
2022-10-09T06:07:23.919Z,101134.56
2022-10-09T06:09:51.820Z,101128.34
2022-10-09T06:12:20.017Z,101129.50
2022-10-09T06:14:49.583Z,101117.81
2022-10-09T06:17:17.055Z,101126.91
2022-10-09T06:19:45.815Z,101125.13
2022-10-09T06:22:13.700Z,101120.69
2022-10-09T06:24:41.176Z,101111.78
2022-10-09T06:27:09.122Z,101119.03
2022-10-09T06:29:36.994Z,101115.13
2022-10-09T06:32:04.589Z,101107.34
2022-10-09T06:34:32.408Z,101111.81
2022-10-09T06:36:59.977Z,101108.03
2022-10-09T06:39:27.492Z,101104.66
2022-10-09T06:41:54.986Z,101110.56
2022-10-09T06:44:41.769Z,101109.47
2022-10-09T06:47:09.271Z,101112.78
2022-10-09T06:49:36.781Z,101117.94
2022-10-09T06:52:04.433Z,101114.78
2022-10-09T06:54:33.491Z,101112.97
2022-10-09T06:57:01.199Z,101107.59
2022-10-09T06:59:29.671Z,101104.50
2022-10-09T07:01:57.287Z,101118.75
2022-10-09T07:04:24.758Z,101100.94
2022-10-09T07:06:52.283Z,101102.19
2022-10-09T07:09:19.817Z,101091.50
2022-10-09T07:11:49.381Z,101087.41
2022-10-09T07:14:17.570Z,101086.84
2022-10-09T07:16:47.532Z,101079.13
2022-10-09T07:19:17.762Z,101076.78
2022-10-09T07:21:47.993Z,101076.94
2022-10-09T07:24:16.883Z,101070.34
2022-10-09T07:26:47.175Z,101072.72
2022-10-09T07:29:16.849Z,101074.44
2022-10-09T07:31:45.050Z,101074.56
2022-10-09T07:34:12.689Z,101068.78
2022-10-09T07:36:40.328Z,101064.59
2022-10-09T07:39:08.607Z,101072.19
2022-10-09T07:41:36.757Z,101060.34
2022-10-09T07:44:05.392Z,101054.44
2022-10-09T07:46:34.356Z,101062.25
2022-10-09T07:49:03.170Z,101048.34
2022-10-09T07:51:32.030Z,101049.03
2022-10-09T07:54:01.994Z,101053.88
2022-10-09T07:56:35.648Z,101052.31
2022-10-09T07:59:05.813Z,101041.09
2022-10-09T08:01:35.269Z,101046.78
2022-10-09T08:04:04.135Z,101046.53
2022-10-09T08:06:32.311Z,101049.94
2022-10-09T08:09:01.505Z,101045.72
2022-10-09T08:11:30.498Z,101051.28
2022-10-09T08:14:01.626Z,101050.06
2022-10-09T08:16:31.560Z,101044.97
2022-10-09T08:19:01.917Z,101040.81
2022-10-09T08:21:33.011Z,101039.44
2022-10-09T08:24:00.808Z,101047.16
2022-10-09T08:26:30.082Z,101037.56
2022-10-09T08:29:05.354Z,101024.59
2022-10-09T08:31:33.158Z,101030.88
2022-10-09T08:34:02.946Z,101031.44
2022-10-09T08:36:31.179Z,101033.38
2022-10-09T08:39:00.745Z,101031.47
2022-10-09T08:41:44.548Z,101039.13
2022-10-09T08:44:17.257Z,101028.56
2022-10-09T08:47:14.305Z,101024.06
2022-10-09T08:49:51.021Z,101008.56
2022-10-09T08:52:38.701Z,101008.75
2022-10-09T08:55:26.405Z,101007.16
2022-10-09T08:57:56.382Z,101005.34
2022-10-09T09:00:28.290Z,100991.25
2022-10-09T09:03:32.965Z,100992.91
2022-10-09T09:06:10.867Z,100984.13
2022-10-09T09:09:02.003Z,100988.69
2022-10-09T09:11:48.303Z,100983.50
2022-10-09T09:14:53.945Z,100980.41
2022-10-09T09:17:34.645Z,100977.41
2022-10-09T09:20:20.868Z,100974.03
2022-10-09T09:22:50.528Z,100976.84
2022-10-09T09:25:25.484Z,100975.91
2022-10-09T09:27:57.275Z,100977.13
2022-10-09T09:30:31.287Z,100980.31
2022-10-09T09:33:19.516Z,100976.19
2022-10-09T09:36:02.134Z,100975.47
2022-10-09T09:38:30.631Z,100966.38
2022-10-09T09:40:58.513Z,100963.81
2022-10-09T09:43:27.160Z,100966.50
2022-10-09T09:45:57.449Z,100951.69
2022-10-09T09:48:28.476Z,100942.19
2022-10-09T09:51:16.173Z,100947.53
2022-10-09T09:53:48.281Z,100949.34
2022-10-09T09:56:17.064Z,100946.47
2022-10-09T09:58:47.240Z,100943.66
2022-10-09T10:01:22.794Z,100933.59
2022-10-09T10:03:53.356Z,100930.69
2022-10-09T10:06:28.920Z,100936.63
2022-10-09T10:09:05.064Z,100933.94
2022-10-09T10:11:44.922Z,100927.75
2022-10-09T10:14:15.631Z,100929.81
2022-10-09T10:16:44.430Z,100935.16
2022-10-09T10:19:24.040Z,100925.31
2022-10-09T10:21:57.621Z,100920.34
2022-10-09T10:24:32.905Z,100916.94
2022-10-09T10:27:07.532Z,100920.84
2022-10-09T10:29:42.531Z,100914.00
2022-10-09T10:32:17.508Z,100910.84
2022-10-09T10:34:53.794Z,100905.25
2022-10-09T10:37:30.876Z,100900.50
2022-10-09T10:40:14.687Z,100897.38
2022-10-09T10:43:09.427Z,100898.34
2022-10-09T10:45:48.676Z,100894.31
2022-10-09T10:48:23.492Z,100889.69
2022-10-09T10:51:06.756Z,100886.38
2022-10-09T10:53:57.328Z,100876.38
2022-10-09T10:56:31.090Z,100861.94
2022-10-09T10:59:37.767Z,100864.59
2022-10-09T11:02:32.013Z,100868.84
2022-10-09T11:05:23.091Z,100867.38
2022-10-09T11:08:14.665Z,100871.16
2022-10-09T11:11:05.126Z,100861.44
2022-10-09T11:13:49.357Z,100865.34
2022-10-09T11:16:19.558Z,100850.13
2022-10-09T11:19:05.443Z,100857.19
2022-10-09T11:21:53.868Z,100857.53
2022-10-09T11:24:21.306Z,100858.97
2022-10-09T11:27:06.749Z,100866.28
2022-10-09T11:29:42.935Z,100855.31
2022-10-09T11:32:32.383Z,100850.19
2022-10-09T11:35:15.855Z,100856.66
2022-10-09T11:37:47.843Z,100858.72
2022-10-09T11:40:22.933Z,100858.47
2022-10-09T11:43:22.280Z,100855.19
2022-10-09T11:46:03.131Z,100848.16
2022-10-09T11:48:35.475Z,100855.09
2022-10-09T11:51:25.424Z,100861.66
2022-10-09T11:53:53.665Z,100862.63
2022-10-09T11:56:24.505Z,100863.84
2022-10-09T11:59:04.802Z,100865.56
2022-10-09T12:01:32.752Z,100860.19
2022-10-09T12:04:13.447Z,100873.38
2022-10-09T12:06:51.859Z,100872.03
2022-10-09T12:09:35.438Z,100872.44
2022-10-09T12:12:07.965Z,100877.56
2022-10-09T12:14:38.213Z,100884.00
2022-10-09T12:17:23.858Z,100882.44
2022-10-09T12:20:01.409Z,100896.84
2022-10-09T12:22:40.619Z,100881.91
2022-10-09T12:25:21.614Z,100879.09
2022-10-09T12:27:54.923Z,100882.16
2022-10-09T12:30:29.220Z,100885.56
2022-10-09T12:33:07.941Z,100883.59
2022-10-09T12:35:39.386Z,100885.09
2022-10-09T12:38:27.527Z,100886.53
2022-10-09T12:40:57.649Z,100883.41
2022-10-09T12:43:26.597Z,100884.00
2022-10-09T12:45:54.888Z,100884.38
2022-10-09T12:48:27.781Z,100885.31
2022-10-09T12:50:55.540Z,100888.75
2022-10-09T12:53:28.468Z,100886.81
2022-10-09T12:56:00.205Z,100885.31
2022-10-09T12:58:31.875Z,100887.25
2022-10-09T13:01:05.022Z,100890.19
2022-10-09T13:03:32.702Z,100894.44
2022-10-09T13:06:01.033Z,100888.59
2022-10-09T13:08:35.241Z,100896.88
2022-10-09T13:11:13.317Z,100900.41
2022-10-09T13:13:42.230Z,100891.16
2022-10-09T13:16:10.831Z,100896.88
2022-10-09T13:18:40.717Z,100893.34
2022-10-09T13:21:17.948Z,100895.06
2022-10-09T13:23:46.017Z,100889.72
2022-10-09T13:26:34.429Z,100883.38
2022-10-09T13:29:04.978Z,100883.38
2022-10-09T13:31:33.936Z,100882.66
2022-10-09T13:34:11.621Z,100878.28
2022-10-09T13:36:39.453Z,100877.44
2022-10-09T13:39:10.883Z,100864.31
2022-10-09T13:41:38.393Z,100870.41
2022-10-09T13:44:06.108Z,100863.94
2022-10-09T13:46:33.680Z,100872.69
2022-10-09T13:49:01.227Z,100866.63
2022-10-09T13:51:29.541Z,100862.97
2022-10-09T13:53:56.980Z,100868.44
2022-10-09T13:56:24.779Z,100861.41
2022-10-09T13:58:52.277Z,100863.47
2022-10-09T14:01:20.233Z,100862.88
2022-10-09T14:03:47.797Z,100861.66
2022-10-09T14:06:18.962Z,100860.59
2022-10-09T14:08:50.192Z,100864.81
2022-10-09T14:11:17.781Z,100860.81
2022-10-09T14:14:05.147Z,100867.00
2022-10-09T14:16:35.047Z,100862.50
2022-10-09T14:19:05.436Z,100857.16
2022-10-09T14:21:34.445Z,100857.28
2022-10-09T14:24:03.374Z,100870.66
2022-10-09T14:26:31.346Z,100859.00
2022-10-09T14:29:00.986Z,100865.41
2022-10-09T14:31:29.070Z,100874.41
2022-10-09T14:33:59.809Z,100872.84
2022-10-09T14:36:28.185Z,100872.72
2022-10-09T14:38:56.172Z,100877.47
2022-10-09T14:41:23.772Z,100885.56
2022-10-09T14:43:56.963Z,100877.09
2022-10-09T14:46:24.663Z,100877.31
2022-10-09T14:48:55.221Z,100872.81
2022-10-09T14:51:26.239Z,100880.25
2022-10-09T14:54:00.462Z,100888.59
2022-10-09T14:56:28.641Z,100880.94
2022-10-09T14:58:58.006Z,100885.56
2022-10-09T15:01:26.465Z,100891.75
2022-10-09T15:03:54.697Z,100891.38
2022-10-09T15:06:25.247Z,100893.06
2022-10-09T15:08:57.158Z,100887.72
2022-10-09T15:11:27.937Z,100894.06
2022-10-09T15:13:56.836Z,100904.84
2022-10-09T15:16:26.637Z,100900.63
2022-10-09T15:18:55.930Z,100903.88
2022-10-09T15:21:26.225Z,100904.72
2022-10-09T15:23:58.579Z,100907.78
2022-10-09T15:26:28.189Z,100905.09
2022-10-09T15:28:56.034Z,100911.56
2022-10-09T15:31:26.805Z,100916.88
2022-10-09T15:33:55.989Z,100922.34
2022-10-09T15:36:25.689Z,100918.22
2022-10-09T15:38:53.902Z,100923.66
2022-10-09T15:41:21.596Z,100928.28
2022-10-09T15:43:50.582Z,100928.63
2022-10-09T15:46:18.739Z,100926.19
2022-10-09T15:48:47.896Z,100934.44
2022-10-09T15:51:15.876Z,100931.88
2022-10-09T15:53:47.200Z,100930.41
2022-10-09T15:56:20.282Z,100939.16
2022-10-09T15:58:48.172Z,100943.75
2022-10-09T16:01:17.552Z,100930.41
2022-10-09T16:03:45.372Z,100938.28
2022-10-09T16:06:17.058Z,100940.97
2022-10-09T16:08:47.161Z,100938.22
2022-10-09T16:11:19.163Z,100933.81
2022-10-09T16:13:49.516Z,100936.59
2022-10-09T16:16:24.576Z,100934.56
2022-10-09T16:18:52.318Z,100939.38
2022-10-09T16:21:22.631Z,100938.84
2022-10-09T16:23:53.295Z,100935.56
2022-10-09T16:26:23.486Z,100934.72
2022-10-09T16:28:52.440Z,100945.41
2022-10-09T16:31:30.360Z,100941.97
2022-10-09T16:33:59.058Z,100939.31
2022-10-09T16:36:27.532Z,100934.94
2022-10-09T16:38:56.560Z,100930.56
2022-10-09T16:41:25.004Z,100931.81
2022-10-09T16:43:55.264Z,100931.81
2022-10-09T16:46:24.262Z,100927.69
2022-10-09T16:48:53.898Z,100927.91
2022-10-09T16:51:24.992Z,100928.88
2022-10-09T16:53:55.000Z,100925.09
2022-10-09T16:56:25.537Z,100925.34
2022-10-09T16:58:59.196Z,100930.91
2022-10-09T17:01:28.328Z,100927.41
2022-10-09T17:03:57.305Z,100933.81
2022-10-09T17:06:26.178Z,100932.00
2022-10-09T17:08:58.582Z,100933.94
2022-10-09T17:11:28.270Z,100942.91
2022-10-09T17:13:57.050Z,100939.50
2022-10-09T17:16:28.172Z,100946.78
2022-10-09T17:18:56.107Z,100945.69
2022-10-09T17:21:26.718Z,100950.16
2022-10-09T17:23:59.330Z,100943.25
2022-10-09T17:26:28.645Z,100939.84
2022-10-09T17:28:58.387Z,100949.69
2022-10-09T17:31:28.484Z,100949.88
2022-10-09T17:33:59.713Z,100950.88
2022-10-09T17:36:31.344Z,100943.81
2022-10-09T17:38:59.413Z,100952.81
2022-10-09T17:41:27.408Z,100952.81
2022-10-09T17:43:56.624Z,100941.16
2022-10-09T17:46:25.552Z,100957.75
2022-10-09T17:48:53.573Z,100957.22
2022-10-09T17:51:25.382Z,100948.38
2022-10-09T17:53:54.318Z,100947.53
2022-10-09T17:56:21.856Z,100944.13
2022-10-09T17:58:50.236Z,100945.56
2022-10-09T18:01:18.184Z,100941.34
2022-10-09T18:03:47.234Z,100945.91
2022-10-09T18:06:17.894Z,100950.63
2022-10-09T18:08:48.624Z,100949.25
2022-10-09T18:11:17.348Z,100940.66
2022-10-09T18:13:45.583Z,100947.03
2022-10-09T18:16:18.514Z,100942.16
2022-10-09T18:18:46.582Z,100945.91
2022-10-09T18:21:17.071Z,100948.69
2022-10-09T18:23:48.077Z,100955.19
2022-10-09T18:26:18.136Z,100950.94
2022-10-09T18:28:48.629Z,100950.28
2022-10-09T18:31:19.808Z,100950.63
2022-10-09T18:33:47.865Z,100952.97
2022-10-09T18:36:19.839Z,100964.72
2022-10-09T18:38:53.695Z,100955.53
2022-10-09T18:41:23.176Z,100956.72
2022-10-09T18:43:52.384Z,100958.75
2022-10-09T18:46:22.912Z,100952.88
2022-10-09T18:48:52.195Z,100961.06
2022-10-09T18:51:22.737Z,100968.34
2022-10-09T18:53:57.191Z,100961.72
2022-10-09T18:56:26.276Z,100956.53
2022-10-09T18:58:54.183Z,100957.38
2022-10-09T19:01:21.699Z,100960.44
2022-10-09T19:03:50.314Z,100957.06
2022-10-09T19:06:19.372Z,100952.88
2022-10-09T19:08:47.729Z,100960.88
2022-10-09T19:11:15.932Z,100957.47
2022-10-09T19:13:44.021Z,100961.09
2022-10-09T19:16:12.955Z,100958.44
2022-10-09T19:18:40.573Z,100960.25
2022-10-09T19:21:13.454Z,100957.47
2022-10-09T19:23:42.302Z,100953.13
2022-10-09T19:26:12.084Z,100956.81
2022-10-09T19:28:39.872Z,100962.25
2022-10-09T19:31:09.031Z,100958.56
2022-10-09T19:33:38.135Z,100970.56
2022-10-09T19:36:06.773Z,100966.72
2022-10-09T19:38:35.215Z,100959.66
2022-10-09T19:41:08.480Z,100966.25
2022-10-09T19:43:37.235Z,100962.84
2022-10-09T19:46:11.130Z,100960.41
2022-10-09T19:48:40.799Z,100963.16
2022-10-09T19:51:11.850Z,100956.34
2022-10-09T19:53:39.704Z,100956.75
2022-10-09T19:56:17.587Z,100956.97
2022-10-09T19:58:48.077Z,100960.88
2022-10-09T20:01:18.492Z,100958.00
2022-10-09T20:03:48.223Z,100951.22
2022-10-09T20:06:16.249Z,100953.31
2022-10-09T20:08:45.236Z,100943.63
2022-10-09T20:11:13.970Z,100945.44
2022-10-09T20:13:42.787Z,100946.47
2022-10-09T20:16:14.452Z,100947.63
2022-10-09T20:18:43.615Z,100953.50
2022-10-09T20:21:15.121Z,100950.28
2022-10-09T20:23:44.415Z,100950.47
2022-10-09T20:26:15.268Z,100951.72
2022-10-09T20:28:44.046Z,100950.13
2022-10-09T20:31:18.116Z,100951.19
2022-10-09T20:33:47.801Z,100944.47
2022-10-09T20:36:21.724Z,100940.84
2022-10-09T20:38:49.864Z,100939.13
2022-10-09T20:41:18.022Z,100935.81
2022-10-09T20:43:49.379Z,100940.84
2022-10-09T20:46:17.705Z,100938.28
2022-10-09T20:48:46.108Z,100930.94
2022-10-09T20:51:13.992Z,100934.56
2022-10-09T20:53:41.741Z,100928.28
2022-10-09T20:56:14.957Z,100921.47
2022-10-09T20:58:42.934Z,100925.28
2022-10-09T21:01:12.199Z,100933.47
2022-10-09T21:03:41.206Z,100933.66
2022-10-09T21:06:11.492Z,100918.00
2022-10-09T21:08:39.484Z,100919.81
2022-10-09T21:11:11.656Z,100916.50
2022-10-09T21:13:39.855Z,100919.28
2022-10-09T21:16:12.103Z,100924.59
2022-10-09T21:18:41.629Z,100913.69
2022-10-09T21:21:15.896Z,100916.22
2022-10-09T21:23:44.408Z,100911.69
2022-10-09T21:26:14.356Z,100919.28
2022-10-09T21:28:43.262Z,100908.34
2022-10-09T21:31:12.896Z,100905.25
2022-10-09T21:33:41.619Z,100905.63
2022-10-09T21:36:11.778Z,100905.00
2022-10-09T21:38:39.512Z,100894.47
2022-10-09T21:41:07.089Z,100898.47
2022-10-09T21:43:34.787Z,100893.91
2022-10-09T21:46:02.265Z,100896.94
2022-10-09T21:48:30.974Z,100897.44
2022-10-09T21:50:58.482Z,100904.44
2022-10-09T21:53:26.116Z,100903.88
2022-10-09T21:55:54.234Z,100911.00
2022-10-09T21:58:21.706Z,100897.81
2022-10-09T22:01:02.016Z,100906.16
2022-10-09T22:03:32.162Z,100902.00
2022-10-09T22:06:03.376Z,100902.94
2022-10-09T22:08:31.005Z,100904.84
2022-10-09T22:10:59.813Z,100913.09
2022-10-09T22:13:28.555Z,100915.00
2022-10-09T22:15:56.052Z,100916.69
2022-10-09T22:18:23.612Z,100917.00
2022-10-09T22:20:51.860Z,100923.50
2022-10-09T22:23:20.855Z,100930.97
2022-10-09T22:25:59.818Z,100919.03
2022-10-09T22:28:27.677Z,100913.88
2022-10-09T22:31:03.647Z,100911.16
2022-10-09T22:33:32.044Z,100920.94
2022-10-09T22:36:12.043Z,100920.44
2022-10-09T22:38:42.118Z,100915.16
2022-10-09T22:41:11.309Z,100916.16
2022-10-09T22:43:40.532Z,100928.00
2022-10-09T22:46:10.325Z,100921.53
2022-10-09T22:48:38.897Z,100923.94
2022-10-09T22:51:10.172Z,100917.19
2022-10-09T22:53:38.693Z,100934.06
2022-10-09T22:56:18.359Z,100922.94
2022-10-09T22:58:48.349Z,100930.97
2022-10-09T23:01:20.569Z,100932.97
2022-10-09T23:03:51.235Z,100936.84
2022-10-09T23:06:20.031Z,100919.31
2022-10-09T23:08:48.562Z,100931.34
2022-10-09T23:11:18.201Z,100929.47
2022-10-09T23:13:46.266Z,100919.97
2022-10-09T23:16:15.137Z,100923.66
2022-10-09T23:18:44.150Z,100923.66
2022-10-09T23:21:15.090Z,100916.38
2022-10-09T23:23:44.446Z,100921.78
2022-10-09T23:26:14.113Z,100914.50
2022-10-09T23:28:41.829Z,100911.06
2022-10-09T23:31:14.582Z,100902.94
2022-10-09T23:33:44.363Z,100916.22
2022-10-09T23:36:14.979Z,100917.31
2022-10-09T23:38:42.981Z,100909.47
2022-10-09T23:41:22.592Z,100905.97
2022-10-09T23:43:51.229Z,100915.63
2022-10-09T23:46:22.302Z,100921.88
2022-10-09T23:48:51.746Z,100925.06
2022-10-09T23:51:20.718Z,100915.38
2022-10-09T23:53:48.480Z,100911.03
2022-10-09T23:56:22.126Z,100909.16
2022-10-09T23:58:50.835Z,100914.38
